Wetterdaten: Woche 29.03.10 - 04.04.10 (KW13)
Datum Zeit Temp. Innen Temp. Aussen UV X Diff Temp. Feuchte Inne Feuchte Auss Sonnenschein Luftdruck Regen ab 0,1 Wind Sonnenschein Windben
29.03.2010 00:00 16,1 C 9,5 C 0,0 UV-I 0,0 C 56 % 89 % 0 % 1006,8 hPa 0,2 l/m 3,6 km/h (1 Bft) 0,00 h 3,8 km/h (1 Bft)
29.03.2010 01:00 16,1 C 9,5 C 0,0 UV-I 0,0 C 57 % 90 % 0 % 1006,2 hPa 0,5 l/m 3,0 km/h (1 Bft) 0,00 h 2,8 km/h (1 Bft)
29.03.2010 02:00 16,1 C 9,3 C 0,0 UV-I 0,0 C 57 % 91 % 0 % 1005,4 hPa 0,5 l/m 2,1 km/h (1 Bft) 0,00 h 1,7 km/h (1 Bft)
29.03.2010 03:00 16,1 C 9,2 C 0,0 UV-I 0,0 C 58 % 92 % 0 % 1004,7 hPa 0,9 l/m 1,4 km/h (1 Bft) 0,00 h 0,8 km/h (0 Bft)
29.03.2010 04:00 16,1 C 9,2 C 0,0 UV-I 0,0 C 58 % 93 % 0 % 1003,6 hPa 1,2 l/m 0,0 km/h (0 Bft) 0,00 h 0,1 km/h (0 Bft)
29.03.2010 05:00 16,1 C 9,2 C 0,0 UV-I 0,0 C 58 % 94 % 0 % 1002,6 hPa 1,8 l/m 0,2 km/h (0 Bft) 0,00 h 0,3 km/h (0 Bft)
29.03.2010 06:00 16,1 C 9,2 C 0,0 UV-I 0,0 C 58 % 94 % 0 % 1002,4 hPa 0,7 l/m 1,4 km/h (1 Bft) 0,00 h 1,8 km/h (1 Bft)
29.03.2010 07:00 16,1 C 8,9 C 0,0 UV-I 0,0 C 59 % 94 % 0 % 1002,7 hPa 0,2 l/m 0,3 km/h (0 Bft) 0,00 h 0,1 km/h (0 Bft)
29.03.2010 08:00 16,1 C 8,8 C 0,0 UV-I 0,0 C 59 % 94 % 0 % 1003,2 hPa 0,6 l/m 1,8 km/h (1 Bft) 0,00 h 2,3 km/h (1 Bft)
29.03.2010 09:00 16,2 C 8,6 C 0,1 UV-I 0,0 C 59 % 94 % 0 % 1004,0 hPa 0,6 l/m 4,0 km/h (1 Bft) 0,00 h 3,5 km/h (1 Bft)
29.03.2010 10:00 16,2 C 8,6 C 0,2 UV-I 0,0 C 58 % 94 % 0 % 1005,0 hPa 0,1 l/m 0,7 km/h (0 Bft) 0,00 h 0,4 km/h (0 Bft)
29.03.2010 11:00 16,2 C 9,0 C 0,7 UV-I 0,9 C 58 % 93 % 25 % 1005,6 hPa 0,0 l/m 0,1 km/h (0 Bft) 0,00 h 0,1 km/h (0 Bft)
29.03.2010 12:00 16,4 C 9,7 C 0,8 UV-I 1,5 C 58 % 92 % 43 % 1006,0 hPa 0,0 l/m 0,8 km/h (0 Bft) 0,00 h 0,9 km/h (0 Bft)
29.03.2010 13:00 16,6 C 10,5 C 2,3 UV-I 1,8 C 57 % 89 % 49 % 1005,9 hPa 0,0 l/m 4,0 km/h (1 Bft) 0,10 h 4,0 km/h (1 Bft)
29.03.2010 14:00 17,6 C 12,2 C 4,2 UV-I 4,4 C 56 % 83 % 99 % 1006,6 hPa 0,0 l/m 4,7 km/h (1 Bft) 0,80 h 4,1 km/h (1 Bft)
29.03.2010 15:00 18,6 C 13,9 C 4,8 UV-I 3,9 C 53 % 76 % 90 % 1006,5 hPa 0,0 l/m 3,2 km/h (1 Bft) 0,53 h 2,4 km/h (1 Bft)
29.03.2010 16:00 19,4 C 15,3 C 5,3 UV-I 4,8 C 51 % 71 % 83 % 1007,0 hPa 0,0 l/m 3,7 km/h (1 Bft) 0,37 h 3,8 km/h (1 Bft)
29.03.2010 17:00 19,1 C 16,0 C 2,6 UV-I 3,3 C 52 % 68 % 75 % 1005,1 hPa 0,0 l/m 1,4 km/h (1 Bft) 0,20 h 0,9 km/h (0 Bft)
29.03.2010 18:00 18,6 C 15,6 C 0,3 UV-I 0,3 C 53 % 69 % 10 % 1003,9 hPa 0,0 l/m 0,5 km/h (0 Bft) 0,00 h 0,9 km/h (0 Bft)
29.03.2010 19:00 18,1 C 14,4 C 0,0 UV-I 0,0 C 54 % 73 % 0 % 1003,0 hPa 0,0 l/m 1,6 km/h (1 Bft) 0,00 h 1,4 km/h (1 Bft)
29.03.2010 20:00 17,8 C 13,3 C 0,0 UV-I 0,0 C 55 % 76 % 0 % 1002,0 hPa 0,0 l/m 1,2 km/h (1 Bft) 0,00 h 1,8 km/h (1 Bft)
29.03.2010 21:00 17,6 C 12,4 C 0,0 UV-I 0,0 C 56 % 81 % 0 % 1001,3 hPa 0,0 l/m 1,7 km/h (1 Bft) 0,00 h 2,3 km/h (1 Bft)
29.03.2010 22:00 17,3 C 11,6 C 0,0 UV-I 0,0 C 56 % 84 % 0 % 1000,7 hPa 0,0 l/m 3,0 km/h (1 Bft) 0,00 h 3,3 km/h (1 Bft)
29.03.2010 23:00 17,1 C 11,2 C 0,0 UV-I 0,0 C 57 % 85 % 0 % 1000,1 hPa 0,0 l/m 4,6 km/h (1 Bft) 0,00 h 4,4 km/h (1 Bft)
30.03.2010 00:00 17,0 C 11,0 C 0,0 UV-I 0,0 C 57 % 86 % 0 % 999,1 hPa 0,0 l/m 5,3 km/h (1 Bft) 0,00 h 4,0 km/h (1 Bft)
30.03.2010 01:00 17,0 C 11,0 C 0,0 UV-I 0,0 C 58 % 86 % 0 % 998,1 hPa 0,0 l/m 10,2 km/h (2 Bft) 0,00 h 12,3 km/h (3 Bft)
30.03.2010 02:00 16,9 C 11,2 C 0,0 UV-I 0,0 C 58 % 88 % 0 % 997,3 hPa 0,1 l/m 11,6 km/h (2 Bft) 0,00 h 9,1 km/h (2 Bft)
30.03.2010 03:00 16,9 C 11,1 C 0,0 UV-I 0,0 C 59 % 89 % 0 % 997,2 hPa 0,3 l/m 1,4 km/h (1 Bft) 0,00 h 1,1 km/h (0 Bft)
30.03.2010 04:00 16,9 C 10,8 C 0,0 UV-I 0,0 C 59 % 91 % 0 % 995,5 hPa 0,2 l/m 3,6 km/h (1 Bft) 0,00 h 4,5 km/h (1 Bft)
30.03.2010 05:00 16,9 C 10,6 C 0,0 UV-I 0,0 C 59 % 91 % 0 % 994,6 hPa 0,0 l/m 4,7 km/h (1 Bft) 0,00 h 4,4 km/h (1 Bft)
30.03.2010 06:00 16,8 C 10,4 C 0,0 UV-I 0,0 C 59 % 90 % 0 % 994,2 hPa 0,0 l/m 3,1 km/h (1 Bft) 0,00 h 2,1 km/h (1 Bft)
30.03.2010 07:00 16,8 C 10,4 C 0,0 UV-I 0,0 C 59 % 90 % 0 % 993,8 hPa 0,0 l/m 2,7 km/h (1 Bft) 0,00 h 2,8 km/h (1 Bft)
30.03.2010 08:00 16,8 C 10,4 C 0,0 UV-I 0,0 C 59 % 89 % 0 % 993,7 hPa 0,0 l/m 1,5 km/h (1 Bft) 0,00 h 2,2 km/h (1 Bft)
30.03.2010 09:00 16,8 C 10,9 C 0,6 UV-I 0,8 C 59 % 89 % 22 % 993,3 hPa 0,0 l/m 5,3 km/h (1 Bft) 0,00 h 5,2 km/h (1 Bft)
30.03.2010 10:00 16,9 C 12,0 C 1,8 UV-I 1,8 C 59 % 86 % 51 % 993,1 hPa 0,0 l/m 10,3 km/h (2 Bft) 0,13 h 8,0 km/h (2 Bft)
30.03.2010 11:00 17,0 C 13,9 C 5,9 UV-I 4,1 C 59 % 78 % 94 % 992,8 hPa 0,0 l/m 11,5 km/h (2 Bft) 0,83 h 8,9 km/h (2 Bft)
30.03.2010 12:00 17,3 C 15,6 C 4,0 UV-I 2,0 C 58 % 68 % 52 % 992,5 hPa 0,0 l/m 12,7 km/h (3 Bft) 0,30 h 10,6 km/h (2 Bft)
30.03.2010 13:00 18,0 C 16,4 C 2,4 UV-I 1,3 C 56 % 64 % 37 % 992,4 hPa 0,0 l/m 9,1 km/h (2 Bft) 0,00 h 7,8 km/h (2 Bft)
30.03.2010 14:00 18,0 C 15,5 C 0,2 UV-I 0,0 C 54 % 64 % 0 % 992,0 hPa 0,0 l/m 9,4 km/h (2 Bft) 0,00 h 8,4 km/h (2 Bft)
30.03.2010 15:00 17,8 C 13,9 C 0,1 UV-I 0,0 C 54 % 67 % 0 % 992,5 hPa 0,0 l/m 12,8 km/h (3 Bft) 0,00 h 11,0 km/h (2 Bft)
30.03.2010 16:00 17,6 C 13,2 C 0,2 UV-I 0,0 C 54 % 70 % 0 % 992,5 hPa 0,0 l/m 7,9 km/h (2 Bft) 0,00 h 6,0 km/h (2 Bft)
30.03.2010 17:00 17,6 C 13,0 C 0,0 UV-I 0,0 C 54 % 71 % 0 % 992,8 hPa 0,0 l/m 7,9 km/h (2 Bft) 0,00 h 6,0 km/h (2 Bft)
30.03.2010 18:00 17,5 C 12,7 C 0,0 UV-I 0,0 C 53 % 71 % 0 % 993,0 hPa 0,0 l/m 8,8 km/h (2 Bft) 0,00 h 6,9 km/h (2 Bft)
30.03.2010 19:00 17,3 C 12,1 C 0,0 UV-I 0,0 C 53 % 71 % 0 % 992,8 hPa 0,0 l/m 8,1 km/h (2 Bft) 0,00 h 6,9 km/h (2 Bft)
30.03.2010 20:00 17,1 C 11,4 C 0,0 UV-I 0,0 C 53 % 73 % 0 % 992,6 hPa 0,0 l/m 8,4 km/h (2 Bft) 0,00 h 7,5 km/h (2 Bft)
30.03.2010 21:00 16,9 C 10,6 C 0,0 UV-I 0,0 C 54 % 75 % 0 % 993,1 hPa 0,0 l/m 8,5 km/h (2 Bft) 0,00 h 7,4 km/h (2 Bft)
30.03.2010 22:00 16,7 C 8,5 C 0,0 UV-I 0,0 C 51 % 77 % 0 % 995,1 hPa 0,0 l/m 14,4 km/h (3 Bft) 0,00 h 13,3 km/h (3 Bft)
30.03.2010 23:00 16,3 C 6,8 C 0,0 UV-I 0,0 C 51 % 82 % 0 % 996,2 hPa 0,0 l/m 9,0 km/h (2 Bft) 0,00 h 8,1 km/h (2 Bft)
31.03.2010 00:00 16,0 C 6,2 C 0,0 UV-I 0,0 C 51 % 84 % 0 % 997,0 hPa 0,0 l/m 8,8 km/h (2 Bft) 0,00 h 7,9 km/h (2 Bft)
31.03.2010 01:00 15,8 C 5,8 C 0,0 UV-I 0,0 C 51 % 84 % 0 % 997,4 hPa 0,0 l/m 5,6 km/h (1 Bft) 0,00 h 5,5 km/h (1 Bft)
31.03.2010 02:00 15,6 C 5,5 C 0,0 UV-I 0,0 C 51 % 84 % 0 % 997,5 hPa 0,0 l/m 8,4 km/h (2 Bft) 0,00 h 7,2 km/h (2 Bft)
31.03.2010 03:00 15,6 C 5,5 C 0,0 UV-I 0,0 C 51 % 83 % 0 % 997,6 hPa 0,0 l/m 9,4 km/h (2 Bft) 0,00 h 9,8 km/h (2 Bft)
31.03.2010 04:00 15,5 C 5,7 C 0,0 UV-I 0,0 C 50 % 82 % 0 % 997,3 hPa 0,0 l/m 6,4 km/h (2 Bft) 0,00 h 5,4 km/h (1 Bft)
31.03.2010 05:00 15,4 C 5,6 C 0,0 UV-I 0,0 C 51 % 83 % 0 % 997,1 hPa 0,0 l/m 9,2 km/h (2 Bft) 0,00 h 7,5 km/h (2 Bft)
31.03.2010 06:00 15,4 C 5,8 C 0,0 UV-I 0,0 C 51 % 83 % 0 % 997,1 hPa 0,0 l/m 7,0 km/h (2 Bft) 0,00 h 5,7 km/h (1 Bft)
31.03.2010 07:00 15,2 C 6,3 C 0,0 UV-I 0,0 C 49 % 78 % 0 % 997,1 hPa 0,0 l/m 9,2 km/h (2 Bft) 0,00 h 8,4 km/h (2 Bft)
31.03.2010 08:00 15,2 C 7,0 C 0,4 UV-I 0,1 C 49 % 74 % 2 % 997,2 hPa 0,0 l/m 10,1 km/h (2 Bft) 0,00 h 8,9 km/h (2 Bft)
31.03.2010 09:00 15,2 C 7,8 C 1,2 UV-I 0,0 C 48 % 71 % 1 % 997,2 hPa 0,0 l/m 12,4 km/h (3 Bft) 0,00 h 11,4 km/h (2 Bft)
31.03.2010 10:00 15,3 C 9,0 C 2,1 UV-I 2,5 C 47 % 67 % 64 % 997,1 hPa 0,0 l/m 17,2 km/h (3 Bft) 0,30 h 16,5 km/h (3 Bft)
31.03.2010 11:00 15,6 C 10,0 C 4,2 UV-I 2,0 C 46 % 61 % 55 % 997,1 hPa 0,0 l/m 16,6 km/h (3 Bft) 0,30 h 14,8 km/h (3 Bft)
31.03.2010 12:00 15,8 C 11,1 C 8,5 UV-I 3,8 C 44 % 53 % 83 % 997,3 hPa 0,0 l/m 15,9 km/h (3 Bft) 0,67 h 12,8 km/h (3 Bft)
31.03.2010 13:00 16,4 C 12,2 C 4,3 UV-I 2,4 C 42 % 47 % 66 % 997,1 hPa 0,0 l/m 20,4 km/h (4 Bft) 0,37 h 18,6 km/h (3 Bft)
31.03.2010 14:00 17,1 C 12,5 C 3,9 UV-I 1,7 C 40 % 46 % 48 % 997,9 hPa 0,0 l/m 18,8 km/h (3 Bft) 0,00 h 16,9 km/h (3 Bft)
31.03.2010 15:00 17,4 C 12,8 C 4,3 UV-I 1,6 C 39 % 45 % 45 % 997,9 hPa 0,0 l/m 17,2 km/h (3 Bft) 0,17 h 12,4 km/h (3 Bft)
31.03.2010 16:00 17,0 C 10,8 C 2,4 UV-I 0,2 C 40 % 59 % 7 % 997,3 hPa 0,4 l/m 16,8 km/h (3 Bft) 0,00 h 13,7 km/h (3 Bft)
31.03.2010 17:00 17,4 C 9,9 C 3,7 UV-I 1,7 C 42 % 65 % 46 % 997,9 hPa 0,1 l/m 15,1 km/h (3 Bft) 0,33 h 12,9 km/h (3 Bft)
31.03.2010 18:00 16,8 C 8,4 C 0,6 UV-I 0,0 C 43 % 68 % 0 % 998,2 hPa 0,1 l/m 15,6 km/h (3 Bft) 0,00 h 13,6 km/h (3 Bft)
31.03.2010 19:00 16,3 C 8,3 C 0,0 UV-I 0,0 C 43 % 69 % 0 % 998,4 hPa 0,0 l/m 12,2 km/h (2 Bft) 0,00 h 11,1 km/h (2 Bft)
31.03.2010 20:00 15,8 C 7,5 C 0,0 UV-I 0,0 C 44 % 71 % 0 % 999,0 hPa 0,5 l/m 10,2 km/h (2 Bft) 0,00 h 8,6 km/h (2 Bft)
31.03.2010 21:00 15,4 C 6,4 C 0,0 UV-I 0,0 C 46 % 79 % 0 % 999,8 hPa 0,0 l/m 7,9 km/h (2 Bft) 0,00 h 7,2 km/h (2 Bft)
31.03.2010 22:00 15,2 C 6,0 C 0,0 UV-I 0,0 C 46 % 78 % 0 % 1000,0 hPa 0,0 l/m 9,8 km/h (2 Bft) 0,00 h 8,2 km/h (2 Bft)
31.03.2010 23:00 15,0 C 5,6 C 0,0 UV-I 0,0 C 46 % 78 % 0 % 1000,5 hPa 0,0 l/m 9,3 km/h (2 Bft) 0,00 h 8,7 km/h (2 Bft)
01.04.2010 00:00 14,8 C 5,5 C 0,0 UV-I 0,0 C 45 % 76 % 0 % 1000,8 hPa 0,0 l/m 15,8 km/h (3 Bft) 0,00 h 13,2 km/h (3 Bft)
01.04.2010 01:00 14,6 C 5,3 C 0,0 UV-I 0,0 C 45 % 75 % 0 % 1000,9 hPa 0,0 l/m 16,3 km/h (3 Bft) 0,00 h 14,2 km/h (3 Bft)
01.04.2010 02:00 14,4 C 5,3 C 0,0 UV-I 0,0 C 44 % 75 % 0 % 1001,1 hPa 0,0 l/m 15,8 km/h (3 Bft) 0,00 h 12,8 km/h (3 Bft)
01.04.2010 03:00 14,3 C 5,2 C 0,0 UV-I 0,0 C 44 % 75 % 0 % 1001,6 hPa 0,0 l/m 15,8 km/h (3 Bft) 0,00 h 13,7 km/h (3 Bft)
01.04.2010 04:00 14,2 C 4,7 C 0,0 UV-I 0,0 C 45 % 77 % 0 % 1002,6 hPa 0,0 l/m 14,2 km/h (3 Bft) 0,00 h 11,3 km/h (2 Bft)
01.04.2010 05:00 14,0 C 4,4 C 0,0 UV-I 0,0 C 45 % 77 % 0 % 1003,0 hPa 0,0 l/m 14,9 km/h (3 Bft) 0,00 h 13,1 km/h (3 Bft)
01.04.2010 06:00 13,9 C 4,0 C 0,0 UV-I 0,0 C 45 % 77 % 0 % 1003,6 hPa 0,0 l/m 11,6 km/h (2 Bft) 0,00 h 9,7 km/h (2 Bft)
01.04.2010 07:00 13,8 C 3,8 C 0,0 UV-I 0,0 C 45 % 78 % 0 % 1004,1 hPa 0,0 l/m 11,6 km/h (2 Bft) 0,00 h 10,3 km/h (2 Bft)
01.04.2010 08:00 13,7 C 4,0 C 0,1 UV-I 0,0 C 45 % 78 % 0 % 1004,7 hPa 0,0 l/m 14,0 km/h (3 Bft) 0,00 h 11,9 km/h (2 Bft)
01.04.2010 09:00 13,6 C 4,7 C 0,8 UV-I 0,0 C 45 % 77 % 0 % 1005,5 hPa 0,0 l/m 15,2 km/h (3 Bft) 0,00 h 13,4 km/h (3 Bft)
01.04.2010 10:00 13,8 C 5,6 C 1,0 UV-I 0,6 C 45 % 75 % 16 % 1006,7 hPa 0,0 l/m 15,9 km/h (3 Bft) 0,00 h 13,3 km/h (3 Bft)
01.04.2010 11:00 13,9 C 6,7 C 4,4 UV-I 2,1 C 45 % 70 % 57 % 1007,3 hPa 0,0 l/m 17,2 km/h (3 Bft) 0,20 h 13,7 km/h (3 Bft)
01.04.2010 12:00 14,2 C 7,5 C 4,1 UV-I 1,2 C 44 % 64 % 34 % 1008,0 hPa 0,0 l/m 18,6 km/h (3 Bft) 0,12 h 15,0 km/h (3 Bft)
01.04.2010 13:00 14,5 C 7,8 C 2,2 UV-I 0,2 C 42 % 62 % 6 % 1008,7 hPa 0,1 l/m 16,5 km/h (3 Bft) 0,00 h 12,6 km/h (3 Bft)
01.04.2010 14:00 15,4 C 8,4 C 5,8 UV-I 2,7 C 41 % 61 % 72 % 1011,0 hPa 0,1 l/m 16,6 km/h (3 Bft) 0,50 h 13,9 km/h (3 Bft)
01.04.2010 15:00 16,0 C 9,9 C 6,6 UV-I 3,5 C 39 % 54 % 82 % 1011,5 hPa 0,0 l/m 15,2 km/h (3 Bft) 0,70 h 11,8 km/h (2 Bft)
01.04.2010 16:00 15,9 C 8,7 C 2,0 UV-I 0,6 C 40 % 62 % 17 % 1011,2 hPa 0,6 l/m 10,4 km/h (2 Bft) 0,00 h 8,9 km/h (2 Bft)
01.04.2010 17:00 15,9 C 8,0 C 1,0 UV-I 0,8 C 41 % 67 % 24 % 1011,7 hPa 0,1 l/m 11,5 km/h (2 Bft) 0,07 h 9,1 km/h (2 Bft)
01.04.2010 18:00 15,4 C 7,9 C 0,1 UV-I 0,0 C 42 % 67 % 0 % 1011,9 hPa 0,1 l/m 11,2 km/h (2 Bft) 0,00 h 9,2 km/h (2 Bft)
01.04.2010 19:00 14,9 C 7,2 C 0,0 UV-I 0,0 C 44 % 71 % 0 % 1012,4 hPa 0,7 l/m 4,5 km/h (1 Bft) 0,00 h 3,0 km/h (1 Bft)
01.04.2010 20:00 14,6 C 6,5 C 0,0 UV-I 0,0 C 45 % 72 % 0 % 1012,8 hPa 0,0 l/m 1,2 km/h (1 Bft) 0,00 h 1,0 km/h (0 Bft)
01.04.2010 21:00 14,4 C 5,4 C 0,0 UV-I 0,0 C 45 % 73 % 0 % 1013,3 hPa 0,0 l/m 0,6 km/h (0 Bft) 0,00 h 1,1 km/h (1 Bft)
01.04.2010 22:00 14,3 C 4,5 C 0,0 UV-I 0,0 C 45 % 77 % 0 % 1013,5 hPa 0,0 l/m 4,0 km/h (1 Bft) 0,00 h 3,9 km/h (1 Bft)
01.04.2010 23:00 14,2 C 4,4 C 0,0 UV-I 0,0 C 45 % 77 % 0 % 1014,2 hPa 0,0 l/m 3,1 km/h (1 Bft) 0,00 h 4,0 km/h (1 Bft)
02.04.2010 00:00 14,1 C 4,2 C 0,0 UV-I 0,0 C 45 % 76 % 0 % 1014,3 hPa 0,0 l/m 3,5 km/h (1 Bft) 0,00 h 3,2 km/h (1 Bft)
02.04.2010 01:00 14,1 C 3,7 C 0,0 UV-I 0,0 C 45 % 78 % 0 % 1014,4 hPa 0,0 l/m 5,8 km/h (1 Bft) 0,00 h 5,5 km/h (1 Bft)
02.04.2010 02:00 14,0 C 3,4 C 0,0 UV-I 0,0 C 45 % 78 % 0 % 1014,3 hPa 0,0 l/m 8,5 km/h (2 Bft) 0,00 h 6,1 km/h (2 Bft)
02.04.2010 03:00 14,0 C 2,7 C 0,0 UV-I 0,0 C 45 % 80 % 0 % 1014,0 hPa 0,0 l/m 4,8 km/h (1 Bft) 0,00 h 3,9 km/h (1 Bft)
02.04.2010 04:00 13,9 C 2,1 C 0,0 UV-I 0,0 C 45 % 82 % 0 % 1013,9 hPa 0,0 l/m 5,3 km/h (1 Bft) 0,00 h 4,3 km/h (1 Bft)
02.04.2010 05:00 13,8 C 1,7 C 0,0 UV-I 0,0 C 45 % 83 % 0 % 1013,5 hPa 0,0 l/m 3,0 km/h (1 Bft) 0,00 h 3,4 km/h (1 Bft)
02.04.2010 06:00 13,7 C 1,5 C 0,0 UV-I 0,0 C 45 % 84 % 0 % 1013,5 hPa 0,0 l/m 4,2 km/h (1 Bft) 0,00 h 3,7 km/h (1 Bft)
02.04.2010 07:00 13,6 C 1,3 C 0,0 UV-I 0,0 C 45 % 86 % 0 % 1013,3 hPa 0,0 l/m 2,7 km/h (1 Bft) 0,00 h 2,7 km/h (1 Bft)
02.04.2010 08:00 13,7 C 1,7 C 0,0 UV-I 0,0 C 45 % 86 % 1 % 1013,4 hPa 0,0 l/m 5,4 km/h (1 Bft) 0,00 h 4,3 km/h (1 Bft)
02.04.2010 09:00 13,7 C 3,1 C 0,3 UV-I 1,1 C 45 % 86 % 32 % 1013,6 hPa 0,0 l/m 7,0 km/h (2 Bft) 0,00 h 7,0 km/h (2 Bft)
02.04.2010 10:00 13,9 C 5,1 C 1,9 UV-I 3,1 C 46 % 81 % 88 % 1013,4 hPa 0,0 l/m 9,0 km/h (2 Bft) 0,87 h 8,7 km/h (2 Bft)
02.04.2010 11:00 14,0 C 7,7 C 4,6 UV-I 2,9 C 46 % 72 % 82 % 1013,1 hPa 0,0 l/m 14,6 km/h (3 Bft) 0,53 h 12,7 km/h (3 Bft)
02.04.2010 12:00 14,2 C 10,5 C 6,9 UV-I 3,2 C 45 % 61 % 90 % 1012,6 hPa 0,0 l/m 18,4 km/h (3 Bft) 0,65 h 15,0 km/h (3 Bft)
02.04.2010 13:00 15,0 C 12,9 C 6,1 UV-I 3,1 C 44 % 50 % 86 % 1012,1 hPa 0,0 l/m 19,3 km/h (3 Bft) 0,60 h 16,2 km/h (3 Bft)
02.04.2010 14:00 16,7 C 14,2 C 7,9 UV-I 1,8 C 40 % 43 % 52 % 1014,1 hPa 0,0 l/m 23,2 km/h (4 Bft) 0,00 h 18,3 km/h (3 Bft)
02.04.2010 15:00 17,0 C 14,1 C 5,3 UV-I 0,6 C 38 % 41 % 18 % 1012,6 hPa 0,0 l/m 21,7 km/h (4 Bft) 0,00 h 16,8 km/h (3 Bft)
02.04.2010 16:00 17,0 C 14,3 C 4,4 UV-I 1,0 C 39 % 43 % 28 % 1010,8 hPa 0,0 l/m 20,2 km/h (4 Bft) 0,00 h 15,3 km/h (3 Bft)
02.04.2010 17:00 16,7 C 13,4 C 1,0 UV-I 0,0 C 39 % 45 % 0 % 1009,6 hPa 0,0 l/m 19,4 km/h (3 Bft) 0,00 h 15,6 km/h (3 Bft)
02.04.2010 18:00 16,4 C 12,7 C 0,1 UV-I 0,0 C 39 % 46 % 0 % 1008,9 hPa 0,0 l/m 16,8 km/h (3 Bft) 0,00 h 12,0 km/h (2 Bft)
02.04.2010 19:00 15,9 C 11,9 C 0,0 UV-I 0,0 C 40 % 50 % 0 % 1008,4 hPa 0,0 l/m 13,1 km/h (3 Bft) 0,00 h 11,3 km/h (2 Bft)
02.04.2010 20:00 15,8 C 11,1 C 0,0 UV-I 0,0 C 41 % 54 % 0 % 1008,3 hPa 0,0 l/m 16,4 km/h (3 Bft) 0,00 h 12,3 km/h (3 Bft)
02.04.2010 21:00 15,6 C 9,7 C 0,0 UV-I 0,0 C 43 % 68 % 0 % 1008,8 hPa 0,6 l/m 14,9 km/h (3 Bft) 0,00 h 13,4 km/h (3 Bft)
02.04.2010 22:00 15,3 C 8,8 C 0,0 UV-I 0,0 C 46 % 75 % 0 % 1008,3 hPa 0,0 l/m 11,0 km/h (2 Bft) 0,00 h 9,1 km/h (2 Bft)
02.04.2010 23:00 15,2 C 8,8 C 0,0 UV-I 0,0 C 47 % 74 % 0 % 1008,2 hPa 0,0 l/m 14,4 km/h (3 Bft) 0,00 h 11,0 km/h (2 Bft)
03.04.2010 00:00 15,2 C 8,4 C 0,0 UV-I 0,0 C 47 % 75 % 0 % 1007,9 hPa 0,0 l/m 16,2 km/h (3 Bft) 0,00 h 14,0 km/h (3 Bft)
03.04.2010 01:00 15,1 C 7,7 C 0,0 UV-I 0,0 C 47 % 77 % 0 % 1007,7 hPa 0,0 l/m 15,6 km/h (3 Bft) 0,00 h 12,1 km/h (2 Bft)
03.04.2010 02:00 15,0 C 7,3 C 0,0 UV-I 0,0 C 48 % 82 % 0 % 1007,4 hPa 0,3 l/m 11,9 km/h (2 Bft) 0,00 h 8,7 km/h (2 Bft)
03.04.2010 03:00 14,8 C 7,1 C 0,0 UV-I 0,0 C 49 % 86 % 0 % 1007,5 hPa 1,3 l/m 7,0 km/h (2 Bft) 0,00 h 5,5 km/h (1 Bft)
03.04.2010 04:00 14,8 C 7,0 C 0,0 UV-I 0,0 C 50 % 88 % 0 % 1007,7 hPa 0,0 l/m 2,3 km/h (1 Bft) 0,00 h 2,2 km/h (1 Bft)
03.04.2010 05:00 14,8 C 6,7 C 0,0 UV-I 0,0 C 51 % 89 % 0 % 1007,5 hPa 0,0 l/m 1,9 km/h (1 Bft) 0,00 h 1,8 km/h (1 Bft)
03.04.2010 06:00 14,8 C 6,3 C 0,0 UV-I 0,0 C 51 % 90 % 0 % 1007,5 hPa 0,0 l/m 3,3 km/h (1 Bft) 0,00 h 3,0 km/h (1 Bft)
03.04.2010 07:00 14,8 C 5,9 C 0,0 UV-I 0,0 C 51 % 89 % 0 % 1007,4 hPa 0,0 l/m 5,4 km/h (1 Bft) 0,00 h 4,6 km/h (1 Bft)
03.04.2010 08:00 14,6 C 6,0 C 0,3 UV-I 0,0 C 51 % 89 % 1 % 1007,8 hPa 0,0 l/m 9,0 km/h (2 Bft) 0,00 h 7,0 km/h (2 Bft)
03.04.2010 09:00 14,8 C 7,2 C 1,1 UV-I 1,2 C 51 % 87 % 34 % 1008,0 hPa 0,0 l/m 10,5 km/h (2 Bft) 0,00 h 9,7 km/h (2 Bft)
03.04.2010 10:00 14,9 C 8,6 C 1,7 UV-I 1,1 C 51 % 81 % 31 % 1008,0 hPa 0,0 l/m 13,5 km/h (3 Bft) 0,00 h 10,8 km/h (2 Bft)
03.04.2010 11:00 15,0 C 9,4 C 0,9 UV-I 0,1 C 51 % 79 % 3 % 1007,7 hPa 0,2 l/m 12,3 km/h (3 Bft) 0,00 h 9,6 km/h (2 Bft)
03.04.2010 12:00 15,1 C 9,5 C 0,7 UV-I 0,0 C 51 % 82 % 0 % 1007,5 hPa 0,0 l/m 6,0 km/h (2 Bft) 0,00 h 4,8 km/h (1 Bft)
03.04.2010 13:00 15,1 C 9,7 C 0,9 UV-I 0,1 C 52 % 83 % 3 % 1007,2 hPa 0,4 l/m 4,4 km/h (1 Bft) 0,00 h 3,3 km/h (1 Bft)
03.04.2010 14:00 15,2 C 10,3 C 1,1 UV-I 0,0 C 52 % 82 % 0 % 1007,0 hPa 0,1 l/m 10,5 km/h (2 Bft) 0,00 h 8,5 km/h (2 Bft)
03.04.2010 15:00 15,5 C 11,1 C 1,9 UV-I 0,2 C 52 % 77 % 5 % 1006,9 hPa 0,1 l/m 12,1 km/h (2 Bft) 0,00 h 10,9 km/h (2 Bft)
03.04.2010 16:00 15,8 C 11,9 C 1,5 UV-I 0,7 C 51 % 71 % 21 % 1006,4 hPa 0,0 l/m 16,0 km/h (3 Bft) 0,00 h 15,2 km/h (3 Bft)
03.04.2010 17:00 16,1 C 12,2 C 1,9 UV-I 0,9 C 50 % 69 % 26 % 1006,0 hPa 0,0 l/m 15,0 km/h (3 Bft) 0,03 h 12,5 km/h (3 Bft)
03.04.2010 18:00 16,1 C 12,0 C 0,0 UV-I 0,0 C 49 % 68 % 0 % 1005,7 hPa 0,0 l/m 15,0 km/h (3 Bft) 0,00 h 11,3 km/h (2 Bft)
03.04.2010 19:00 15,8 C 11,4 C 0,0 UV-I 0,0 C 50 % 69 % 0 % 1005,6 hPa 0,0 l/m 12,7 km/h (3 Bft) 0,00 h 9,4 km/h (2 Bft)
03.04.2010 20:00 15,6 C 10,9 C 0,0 UV-I 0,0 C 50 % 71 % 0 % 1005,8 hPa 0,0 l/m 11,8 km/h (2 Bft) 0,00 h 9,0 km/h (2 Bft)
03.04.2010 21:00 15,4 C 10,3 C 0,0 UV-I 0,0 C 51 % 73 % 0 % 1005,7 hPa 0,0 l/m 8,7 km/h (2 Bft) 0,00 h 6,8 km/h (2 Bft)
03.04.2010 22:00 15,5 C 9,9 C 0,0 UV-I 0,0 C 51 % 76 % 0 % 1005,8 hPa 0,0 l/m 12,7 km/h (3 Bft) 0,00 h 10,4 km/h (2 Bft)
03.04.2010 23:00 15,4 C 9,8 C 0,0 UV-I 0,0 C 51 % 76 % 0 % 1005,7 hPa 0,0 l/m 14,2 km/h (3 Bft) 0,00 h 11,0 km/h (2 Bft)
04.04.2010 00:00 15,4 C 9,6 C 0,0 UV-I 0,0 C 52 % 77 % 0 % 1005,7 hPa 0,0 l/m 12,5 km/h (3 Bft) 0,00 h 10,2 km/h (2 Bft)
04.04.2010 01:00 15,3 C 9,3 C 0,0 UV-I 0,0 C 52 % 77 % 0 % 1005,2 hPa 0,0 l/m 14,0 km/h (3 Bft) 0,00 h 11,2 km/h (2 Bft)
04.04.2010 02:00 15,2 C 8,4 C 0,0 UV-I 0,0 C 52 % 79 % 0 % 1004,8 hPa 0,0 l/m 5,7 km/h (1 Bft) 0,00 h 4,8 km/h (1 Bft)
04.04.2010 03:00 15,2 C 8,1 C 0,0 UV-I 0,0 C 52 % 81 % 0 % 1004,6 hPa 0,0 l/m 11,6 km/h (2 Bft) 0,00 h 9,7 km/h (2 Bft)
04.04.2010 04:00 15,2 C 8,4 C 0,0 UV-I 0,0 C 52 % 80 % 0 % 1004,4 hPa 0,0 l/m 14,1 km/h (3 Bft) 0,00 h 10,2 km/h (2 Bft)
04.04.2010 05:00 15,1 C 8,5 C 0,0 UV-I 0,0 C 52 % 81 % 0 % 1004,3 hPa 0,0 l/m 11,5 km/h (2 Bft) 0,00 h 9,2 km/h (2 Bft)
04.04.2010 06:00 15,1 C 8,3 C 0,0 UV-I 0,0 C 53 % 82 % 0 % 1004,5 hPa 0,3 l/m 7,8 km/h (2 Bft) 0,00 h 6,7 km/h (2 Bft)
04.04.2010 07:00 15,1 C 8,4 C 0,0 UV-I 0,0 C 52 % 77 % 0 % 1004,7 hPa 0,0 l/m 8,9 km/h (2 Bft) 0,00 h 7,5 km/h (2 Bft)
04.04.2010 08:00 15,1 C 8,5 C 0,2 UV-I 0,0 C 51 % 74 % 1 % 1005,1 hPa 0,0 l/m 12,5 km/h (3 Bft) 0,00 h 10,4 km/h (2 Bft)
04.04.2010 09:00 15,2 C 9,0 C 0,6 UV-I 0,6 C 50 % 73 % 17 % 1005,3 hPa 0,0 l/m 11,6 km/h (2 Bft) 0,00 h 8,9 km/h (2 Bft)
04.04.2010 10:00 15,2 C 9,2 C 1,1 UV-I 0,2 C 51 % 76 % 6 % 1005,6 hPa 0,0 l/m 13,6 km/h (3 Bft) 0,00 h 12,8 km/h (3 Bft)
04.04.2010 11:00 15,4 C 9,5 C 1,4 UV-I 0,3 C 51 % 75 % 10 % 1006,3 hPa 0,1 l/m 10,6 km/h (2 Bft) 0,00 h 16,4 km/h (3 Bft)
04.04.2010 12:00 15,7 C 9,8 C 1,9 UV-I 0,7 C 50 % 73 % 21 % 1006,8 hPa 0,0 l/m 12,6 km/h (3 Bft) 0,00 h 18,3 km/h (3 Bft)
04.04.2010 13:00 15,9 C 10,1 C 2,2 UV-I 1,0 C 50 % 73 % 27 % 1007,1 hPa 0,0 l/m 10,9 km/h (2 Bft) 0,00 h 17,1 km/h (3 Bft)
04.04.2010 14:00 16,3 C 10,2 C 3,8 UV-I 1,3 C 50 % 76 % 37 % 1008,9 hPa 0,1 l/m 14,4 km/h (3 Bft) 0,17 h 22,2 km/h (4 Bft)
04.04.2010 15:00 16,6 C 10,4 C 2,5 UV-I 1,2 C 49 % 75 % 35 % 1009,2 hPa 0,8 l/m 12,3 km/h (3 Bft) 0,00 h 14,7 km/h (3 Bft)
04.04.2010 16:00 16,4 C 9,7 C 3,1 UV-I 0,8 C 51 % 83 % 23 % 1009,3 hPa 0,7 l/m 8,2 km/h (2 Bft) 0,13 h 11,6 km/h (2 Bft)
04.04.2010 17:00 16,9 C 10,2 C 2,4 UV-I 1,9 C 51 % 81 % 49 % 1010,6 hPa 1,8 l/m 9,2 km/h (2 Bft) 0,30 h 14,7 km/h (3 Bft)
04.04.2010 18:00 16,6 C 9,7 C 0,5 UV-I 0,5 C 51 % 80 % 13 % 1011,3 hPa 0,0 l/m 12,8 km/h (3 Bft) 0,00 h 15,2 km/h (3 Bft)
04.04.2010 19:00 15,9 C 8,9 C 0,0 UV-I 0,0 C 52 % 82 % 0 % 1012,8 hPa 0,0 l/m 8,7 km/h (2 Bft) 0,00 h 12,2 km/h (2 Bft)
04.04.2010 20:00 15,5 C 8,5 C 0,0 UV-I 0,0 C 53 % 84 % 0 % 1013,8 hPa 0,0 l/m 8,1 km/h (2 Bft) 0,00 h 13,6 km/h (3 Bft)
04.04.2010 21:00 15,3 C 8,1 C 0,0 UV-I 0,0 C 53 % 83 % 0 % 1015,4 hPa 0,0 l/m 6,0 km/h (2 Bft) 0,00 h 9,0 km/h (2 Bft)
04.04.2010 22:00 15,1 C 7,5 C 0,0 UV-I 0,0 C 53 % 84 % 0 % 1016,7 hPa 0,0 l/m 4,7 km/h (1 Bft) 0,00 h 7,1 km/h (2 Bft)
04.04.2010 23:00 15,0 C 6,7 C 0,0 UV-I 0,0 C 53 % 85 % 0 % 1017,4 hPa 0,0 l/m 2,4 km/h (1 Bft) 0,00 h 4,2 km/h (1 Bft)
Min-Datum _ 01.04.10 02.04.10 29.03.10 29.03.10 02.04.10 02.04.10 29.03.10 30.03.10 - 29.03.10 - 29.03.10
_ Min-Zeit 08:10 07:18 00:00 00:00 14:58 15:12 00:00 14:12 - 03:32 - 00:02
Minimum _ 13,6 C 1,2 C 0,0 UV-I 0,0 C 38 % 40 % 0 % 991,8 hPa - 0,0 km/h (0 Bft) - 0,0 km/h (0 Bft)
Max-Datum _ 29.03.10 30.03.10 31.03.10 29.03.10 29.03.10 29.03.10 29.03.10 04.04.10 04.04.10 02.04.10 29.03.10 04.04.10
_ Max-Zeit 16:14 13:18 12:30 16:02 06:26 05:24 13:54 23:52 17:34 14:16 13:54 11:30
Maximum _ 19,7 C 16,5 C 11,4 UV-I 8,0 C 59 % 94 % 100 % 1017,9 hPa 1,8 l/m 30,1 km/h
NO (5 Bft)
0,03 h 57,8 km/h
N-NO (7 Bft)
Durchschnitt _ 15,7 C 8,9 C 1,0 UV-I 0,5 C 50 % 76 % 14 % 1004,4 hPa #17,2 l/m 9,5 km/h (2 Bft) #10:16 h 8,5 km/h (2 Bft)
© 2012 W. Hausmann